Time;durP1;ratioP1;P1;durP2;ratioP2;P2;SDS_P1;SDS_P2;PMS_P1;PMS_P2;Temp;Humidity;BMP_temperature;BMP_pressure;BME280_temperature;BME280_humidity;BME280_pressure;Samples;Min_cycle;Max_cycle;Signal;HPM_P1;HPM_P2
2023/02/08 00:01:55;;;;;;;2.90;1.67;;;20.80;48.20;;;;;;5067685;28;20768;-58
2023/02/08 00:04:25;;;;;;;2.28;2.00;;;20.80;48.30;;;;;;5066317;28;20068;-58
2023/02/08 00:06:52;;;;;;;1.95;1.30;;;20.80;48.50;;;;;;5067687;28;20037;-58
2023/02/08 00:09:19;;;;;;;2.55;1.70;;;20.70;48.60;;;;;;5067325;28;20072;-58
2023/02/08 00:11:46;;;;;;;7.38;2.20;;;20.70;48.70;;;;;;5067603;28;20067;-59
2023/02/08 00:14:14;;;;;;;2.58;1.85;;;20.60;48.70;;;;;;5067550;28;20083;-58
2023/02/08 00:16:41;;;;;;;1.60;1.50;;;20.50;48.70;;;;;;5065750;28;20064;-58
2023/02/08 00:19:09;;;;;;;3.53;1.88;;;20.50;48.80;;;;;;5067428;28;20121;-58
2023/02/08 00:21:37;;;;;;;2.63;1.88;;;20.40;48.80;;;;;;5067125;28;20041;-60
2023/02/08 00:24:05;;;;;;;2.30;1.63;;;20.40;48.90;;;;;;5066624;28;20040;-59
2023/02/08 00:26:32;;;;;;;4.45;2.13;;;20.40;48.90;;;;;;5067046;28;20157;-58
2023/02/08 00:28:59;;;;;;;4.07;2.38;;;20.30;48.90;;;;;;5065358;28;20520;-58
2023/02/08 00:31:29;;;;;;;2.50;2.05;;;20.30;48.90;;;;;;5065509;28;20044;-59
2023/02/08 00:33:56;;;;;;;2.33;2.22;;;20.30;49.00;;;;;;5067104;28;20139;-57
2023/02/08 00:36:23;;;;;;;2.28;2.08;;;20.20;49.00;;;;;;5065151;28;20524;-58
2023/02/08 00:38:51;;;;;;;2.08;1.83;;;20.10;49.10;;;;;;5066384;28;20041;-56
2023/02/08 00:41:20;;;;;;;2.60;2.20;;;20.10;49.10;;;;;;5066518;28;20072;-57
2023/02/08 00:43:47;;;;;;;2.00;1.70;;;20.10;49.20;;;;;;5066778;28;20045;-58
2023/02/08 00:46:15;;;;;;;1.63;1.52;;;20.00;49.20;;;;;;5064949;28;20128;-59
2023/02/08 00:48:41;;;;;;;2.97;2.28;;;20.00;49.40;;;;;;5066647;28;20055;-57
2023/02/08 00:51:14;;;;;;;2.88;2.08;;;19.90;49.40;;;;;;5065213;28;20555;-59
2023/02/08 00:53:43;;;;;;;2.30;1.52;;;19.90;49.60;;;;;;5065000;28;20610;-58
2023/02/08 00:56:13;;;;;;;4.13;2.55;;;19.80;49.70;;;;;;5065069;28;20094;-59
2023/02/08 00:58:42;;;;;;;3.28;1.98;;;19.80;49.90;;;;;;5066375;28;20048;-58
2023/02/08 01:01:13;;;;;;;3.13;2.83;;;19.80;49.90;;;;;;5066464;28;20047;-58
2023/02/08 01:03:42;;;;;;;5.20;2.75;;;19.70;50.00;;;;;;5066373;28;20045;-58
2023/02/08 01:06:12;;;;;;;2.28;1.95;;;19.70;50.00;;;;;;5046797;28;20037;-59
2023/02/08 01:08:42;;;;;;;3.35;1.70;;;19.70;50.00;;;;;;5055042;28;20048;-58
2023/02/08 01:11:14;;;;;;;6.60;2.17;;;19.60;50.00;;;;;;5065989;28;20505;-57
2023/02/08 01:13:42;;;;;;;2.00;1.90;;;19.60;50.10;;;;;;5064866;28;20117;-57
2023/02/08 01:16:12;;;;;;;2.25;2.05;;;19.50;50.00;;;;;;5064734;28;20387;-58
2023/02/08 01:18:40;;;;;;;2.15;1.65;;;19.50;50.50;;;;;;5064633;28;20144;-58
2023/02/08 01:21:10;;;;;;;3.05;2.38;;;19.50;49.90;;;;;;5063993;28;20159;-58
2023/02/08 01:23:38;;;;;;;5.50;2.35;;;19.50;49.90;;;;;;5065938;28;20045;-57
2023/02/08 01:26:05;;;;;;;2.05;1.95;;;19.40;49.80;;;;;;5065755;28;20067;-58
2023/02/08 01:28:35;;;;;;;2.13;2.00;;;19.40;49.80;;;;;;5065962;28;20567;-58
2023/02/08 01:31:06;;;;;;;3.90;2.33;;;19.40;49.90;;;;;;5064398;28;20088;-58
2023/02/08 01:33:36;;;;;;;3.22;2.10;;;19.30;49.90;;;;;;5065888;28;20044;-57
2023/02/08 01:36:05;;;;;;;4.07;2.55;;;19.30;49.90;;;;;;5064744;28;20083;-57
2023/02/08 01:38:36;;;;;;;2.03;1.92;;;19.30;49.90;;;;;;5065621;28;20541;-59
2023/02/08 01:41:07;;;;;;;2.80;2.40;;;19.20;49.90;;;;;;5065909;28;20846;-59
2023/02/08 01:44:00;;;;;;;3.67;2.15;;;19.30;50.00;;;;;;5064157;28;20059;-57
2023/02/08 01:46:28;;;;;;;2.53;2.33;;;19.20;49.90;;;;;;5075549;28;20054;-58
2023/02/08 01:48:59;;;;;;;2.47;2.28;;;19.10;50.00;;;;;;5085793;28;20052;-58
2023/02/08 01:51:34;;;;;;;1.92;1.83;;;19.10;50.10;;;;;;5076492;28;20044;-54
2023/02/08 01:54:05;;;;;;;3.38;2.45;;;19.10;50.10;;;;;;5049891;28;20033;-57
2023/02/08 01:56:36;;;;;;;1.92;1.70;;;19.10;50.20;;;;;;5045823;28;20040;-56
2023/02/08 01:59:12;;;;;;;6.75;1.98;;;19.10;50.20;;;;;;5044411;28;20131;-57
2023/02/08 02:01:40;;;;;;;4.93;2.63;;;19.10;50.30;;;;;;5044152;28;20114;-57
2023/02/08 02:04:08;;;;;;;2.90;2.58;;;19.00;50.20;;;;;;5055898;28;20052;-57
2023/02/08 02:06:40;;;;;;;3.20;2.53;;;19.00;50.20;;;;;;5063875;28;20067;-57
2023/02/08 02:09:13;;;;;;;2.20;2.00;;;19.00;50.20;;;;;;5064340;28;20040;-57
2023/02/08 02:11:43;;;;;;;3.05;2.75;;;19.00;50.20;;;;;;5047538;28;20097;-55
2023/02/08 02:14:13;;;;;;;3.22;2.60;;;18.90;50.20;;;;;;5064103;28;20052;-55
2023/02/08 02:16:40;;;;;;;3.88;2.92;;;18.90;50.50;;;;;;5065592;28;20040;-55
2023/02/08 02:19:14;;;;;;;2.78;2.53;;;18.80;50.40;;;;;;5063408;28;20152;-56
2023/02/08 02:21:55;;;;;;;2.45;2.05;;;18.90;50.30;;;;;;5065348;28;20505;-55
2023/02/08 02:24:59;;;;;;;4.70;1.58;;;18.80;50.20;;;;;;5065388;28;20052;-57
2023/02/08 02:27:52;;;;;;;3.25;1.70;;;18.80;50.50;;;;;;5064610;28;20068;-55
2023/02/08 02:31:10;;;;;;;6.10;2.47;;;18.80;50.60;;;;;;5065072;28;20048;-56
2023/02/08 02:33:53;;;;;;;4.20;2.70;;;18.80;50.70;;;;;;5080377;28;20094;-56
2023/02/08 02:36:31;;;;;;;2.13;1.98;;;18.70;50.70;;;;;;5063507;28;20622;-52
2023/02/08 02:39:10;;;;;;;2.78;2.13;;;18.70;50.80;;;;;;5065311;28;20428;-56
2023/02/08 02:44:40;;;;;;;3.70;2.80;;;18.60;51.20;;;;;;5064027;28;20044;-54
2023/02/08 02:47:17;;;;;;;1.77;1.67;;;18.70;51.40;;;;;;5065300;28;20040;-55
2023/02/08 02:49:53;;;;;;;4.63;2.25;;;18.60;51.30;;;;;;5068044;28;20055;-55
2023/02/08 02:52:32;;;;;;;1.42;1.27;;;18.60;51.30;;;;;;5069265;28;20052;-51
2023/02/08 02:55:02;;;;;;;2.35;1.67;;;18.60;51.20;;;;;;5069253;28;20127;-54
2023/02/08 02:57:33;;;;;;;2.28;1.60;;;18.60;51.20;;;;;;5069128;28;20047;-53
2023/02/08 03:00:00;;;;;;;3.05;2.42;;;18.60;51.30;;;;;;5069243;28;20040;-53
2023/02/08 03:02:29;;;;;;;2.55;2.08;;;18.60;51.20;;;;;;5068926;28;20052;-55
2023/02/08 03:04:57;;;;;;;4.35;2.80;;;18.50;51.20;;;;;;5068997;28;20040;-55
2023/02/08 03:07:42;;;;;;;4.47;2.22;;;18.50;51.10;;;;;;5069071;28;20102;-55
2023/02/08 03:10:26;;;;;;;4.90;2.28;;;18.60;51.10;;;;;;5068853;28;20052;-55
2023/02/08 03:13:00;;;;;;;2.25;2.15;;;18.50;51.20;;;;;;5068812;28;20056;-55
2023/02/08 03:15:35;;;;;;;5.53;2.90;;;18.50;51.10;;;;;;5068767;28;20127;-55
2023/02/08 03:18:14;;;;;;;2.58;1.52;;;18.50;51.10;;;;;;5068668;28;20044;-54
2023/02/08 03:20:49;;;;;;;4.35;2.28;;;18.50;51.10;;;;;;5068550;28;20075;-54
2023/02/08 03:23:21;;;;;;;1.77;1.40;;;18.50;51.10;;;;;;5068526;28;20068;-52
2023/02/08 03:25:53;;;;;;;5.07;1.55;;;18.40;51.00;;;;;;5068734;28;20067;-54
2023/02/08 03:28:24;;;;;;;5.18;2.25;;;18.40;51.00;;;;;;5068088;28;20094;-55
2023/02/08 03:31:01;;;;;;;2.60;2.40;;;18.40;51.00;;;;;;5048358;28;20049;-50
2023/02/08 03:33:36;;;;;;;2.15;2.05;;;18.40;50.90;;;;;;5047932;28;20053;-51
2023/02/08 03:36:11;;;;;;;3.05;2.03;;;18.40;50.80;;;;;;5048143;28;20071;-51
2023/02/08 03:38:43;;;;;;;3.78;1.30;;;18.40;50.80;;;;;;5048216;28;20135;-55
2023/02/08 03:41:15;;;;;;;2.40;2.20;;;18.40;50.80;;;;;;5053728;28;20044;-55
2023/02/08 03:43:47;;;;;;;2.50;2.28;;;18.30;50.70;;;;;;5051242;28;20048;-55
2023/02/08 03:46:20;;;;;;;1.50;1.38;;;18.40;50.80;;;;;;5068279;28;21026;-53
2023/02/08 03:48:51;;;;;;;3.67;2.17;;;18.30;50.70;;;;;;5067870;28;20045;-52
2023/02/08 03:51:23;;;;;;;2.47;1.70;;;18.30;50.70;;;;;;5067959;28;20044;-52
2023/02/08 03:53:53;;;;;;;6.72;2.00;;;18.30;50.70;;;;;;5067181;28;20123;-54
2023/02/08 03:56:30;;;;;;;3.75;1.67;;;18.30;50.90;;;;;;5067877;28;20048;-53
2023/02/08 03:59:03;;;;;;;2.30;2.10;;;18.30;50.80;;;;;;5065885;28;20072;-52
2023/02/08 04:01:38;;;;;;;3.63;1.75;;;18.30;50.90;;;;;;5060911;28;20044;-52
2023/02/08 04:04:05;;;;;;;1.90;1.65;;;18.30;50.90;;;;;;5067688;28;20139;-55
2023/02/08 04:06:33;;;;;;;1.88;1.75;;;18.30;50.90;;;;;;5061265;28;20067;-55
2023/02/08 04:09:00;;;;;;;1.83;1.15;;;18.20;50.80;;;;;;5047679;28;20509;-52
2023/02/08 04:11:28;;;;;;;2.00;1.90;;;18.20;50.80;;;;;;5045917;28;20063;-52
2023/02/08 04:13:55;;;;;;;2.55;1.38;;;18.20;50.80;;;;;;5047536;28;20753;-54
2023/02/08 04:16:22;;;;;;;2.42;2.20;;;18.20;50.90;;;;;;5047285;28;20033;-55
2023/02/08 04:18:49;;;;;;;1.42;1.33;;;18.20;50.90;;;;;;5063001;28;20078;-53
2023/02/08 04:21:17;;;;;;;1.98;1.80;;;18.20;50.90;;;;;;5067245;28;20040;-51
2023/02/08 04:23:48;;;;;;;1.60;1.50;;;18.20;50.80;;;;;;5067272;28;20503;-54
2023/02/08 04:26:15;;;;;;;3.47;2.10;;;18.20;50.90;;;;;;5066972;28;20045;-50
2023/02/08 04:28:44;;;;;;;3.50;2.05;;;18.20;50.80;;;;;;5065689;28;20750;-55
2023/02/08 04:31:11;;;;;;;3.60;1.98;;;18.20;50.70;;;;;;5067060;28;20143;-56
2023/02/08 04:33:38;;;;;;;3.22;2.00;;;18.20;50.80;;;;;;5067104;28;20745;-51
2023/02/08 04:36:07;;;;;;;2.95;2.20;;;18.20;50.80;;;;;;5066745;28;20061;-51
2023/02/08 04:38:36;;;;;;;4.68;2.97;;;18.10;50.80;;;;;;5066217;28;20425;-53
2023/02/08 04:41:04;;;;;;;6.07;2.10;;;18.20;51.00;;;;;;5066853;28;20135;-52
2023/02/08 04:43:31;;;;;;;6.30;2.13;;;18.20;51.40;;;;;;5066662;28;20040;-52
2023/02/08 04:46:00;;;;;;;3.15;2.50;;;18.10;51.70;;;;;;5066594;28;20045;-51
2023/02/08 04:48:30;;;;;;;3.28;1.70;;;18.10;51.70;;;;;;5066954;28;20616;-54
2023/02/08 04:50:59;;;;;;;2.08;1.88;;;18.20;51.80;;;;;;5066684;28;20052;-54
2023/02/08 04:53:26;;;;;;;3.80;1.67;;;18.20;51.70;;;;;;5066761;28;20513;-53
2023/02/08 04:55:57;;;;;;;2.33;2.13;;;18.10;51.50;;;;;;5066665;28;20049;-52
2023/02/08 04:58:25;;;;;;;3.67;2.13;;;18.20;51.50;;;;;;5066629;28;20051;-51
2023/02/08 05:00:54;;;;;;;4.13;1.75;;;18.20;51.50;;;;;;5065476;28;20083;-54
2023/02/08 05:03:21;;;;;;;2.05;1.88;;;18.10;51.40;;;;;;5066571;28;20044;-52
2023/02/08 05:05:57;;;;;;;2.97;1.80;;;18.10;51.20;;;;;;5058856;28;20045;-53
2023/02/08 05:08:28;;;;;;;2.20;2.05;;;18.20;51.30;;;;;;5046658;28;20056;-53
2023/02/08 05:10:55;;;;;;;5.05;2.08;;;18.10;51.30;;;;;;5045836;28;20052;-54
2023/02/08 05:13:26;;;;;;;2.10;1.90;;;18.10;51.20;;;;;;5045963;28;20128;-52
2023/02/08 05:15:53;;;;;;;2.03;1.83;;;18.10;51.20;;;;;;5046670;28;20045;-53
2023/02/08 05:18:21;;;;;;;2.03;1.83;;;18.10;51.10;;;;;;5046400;28;20127;-52
2023/02/08 05:20:55;;;;;;;3.25;1.77;;;18.10;51.10;;;;;;5050266;28;20044;-57
2023/02/08 05:23:48;;;;;;;1.85;1.67;;;18.10;51.10;;;;;;5064493;28;20064;-55
2023/02/08 05:26:16;;;;;;;6.30;2.17;;;18.10;51.20;;;;;;5065253;28;20098;-57
2023/02/08 05:28:45;;;;;;;6.32;2.72;;;18.10;51.80;;;;;;5063567;28;20132;-58
2023/02/08 05:31:16;;;;;;;2.35;1.55;;;18.10;51.30;;;;;;5065353;28;20588;-57
2023/02/08 05:33:46;;;;;;;3.03;2.00;;;18.10;51.20;;;;;;5063641;28;20173;-55
2023/02/08 05:36:13;;;;;;;4.32;2.47;;;18.10;51.20;;;;;;5063068;28;20055;-56
2023/02/08 05:38:40;;;;;;;3.08;2.08;;;18.10;51.10;;;;;;5076213;28;20044;-56
2023/02/08 05:41:09;;;;;;;4.55;2.25;;;18.10;51.10;;;;;;5065217;28;20177;-54
2023/02/08 05:43:38;;;;;;;8.68;2.22;;;18.10;51.10;;;;;;5058878;28;20066;-58
2023/02/08 05:46:10;;;;;;;4.13;1.77;;;18.10;51.80;;;;;;5065045;28;20048;-57
2023/02/08 05:48:38;;;;;;;10.65;2.33;;;18.10;51.40;;;;;;5073288;28;20044;-58
2023/02/08 05:51:11;;;;;;;2.15;2.00;;;18.10;51.50;;;;;;5065450;28;20040;-58
2023/02/08 05:53:38;;;;;;;2.80;2.33;;;18.10;51.40;;;;;;5064707;28;20821;-58
2023/02/08 05:56:07;;;;;;;3.67;2.92;;;18.10;51.40;;;;;;5062631;28;20556;-59
2023/02/08 05:58:34;;;;;;;4.53;2.60;;;18.10;51.50;;;;;;5064463;28;20071;-62
2023/02/08 06:01:10;;;;;;;2.65;2.10;;;18.10;51.40;;;;;;5065295;28;20044;-58
2023/02/08 06:03:37;;;;;;;2.30;2.00;;;18.10;51.40;;;;;;5058594;28;20750;-56
2023/02/08 06:06:09;;;;;;;4.45;1.67;;;18.10;51.40;;;;;;5064655;28;20041;-58
2023/02/08 06:08:37;;;;;;;3.15;1.65;;;18.10;51.30;;;;;;5064726;28;20044;-57
2023/02/08 06:11:06;;;;;;;2.58;2.35;;;18.10;51.30;;;;;;5064554;28;20040;-57
2023/02/08 06:13:33;;;;;;;2.92;1.73;;;18.10;51.30;;;;;;5063984;28;20040;-57
2023/02/08 06:16:00;;;;;;;3.58;2.05;;;18.10;51.30;;;;;;5058758;28;20032;-58
2023/02/08 06:18:34;;;;;;;4.75;2.53;;;18.10;51.20;;;;;;5065012;28;20040;-56
2023/02/08 06:21:01;;;;;;;2.40;2.20;;;18.10;51.20;;;;;;5064934;28;20044;-56
2023/02/08 06:23:28;;;;;;;4.63;1.83;;;18.10;51.20;;;;;;5058475;28;20412;-57
2023/02/08 06:25:57;;;;;;;2.65;2.45;;;18.10;51.10;;;;;;5061339;28;20048;-56
2023/02/08 06:28:24;;;;;;;2.03;1.73;;;18.10;51.10;;;;;;5062310;28;20036;-58
2023/02/08 06:30:51;;;;;;;2.75;2.17;;;18.10;51.10;;;;;;5061626;28;20055;-54
2023/02/08 06:33:19;;;;;;;2.35;2.25;;;18.10;51.40;;;;;;5062899;28;20060;-56
2023/02/08 06:35:51;;;;;;;4.10;2.55;;;18.10;51.60;;;;;;5064941;28;20051;-57
2023/02/08 06:38:21;;;;;;;4.38;1.98;;;18.10;51.60;;;;;;5064722;28;20047;-58
2023/02/08 06:40:50;;;;;;;6.72;1.63;;;18.10;51.50;;;;;;5062648;28;20048;-56
2023/02/08 06:43:17;;;;;;;8.20;3.65;;;18.10;51.50;;;;;;5062974;28;20127;-56
2023/02/08 06:45:46;;;;;;;5.70;2.03;;;18.10;51.50;;;;;;5062068;28;20056;-53
2023/02/08 06:48:13;;;;;;;10.40;2.42;;;18.10;51.50;;;;;;5063544;28;20127;-57
2023/02/08 06:50:40;;;;;;;5.80;2.45;;;18.10;51.40;;;;;;5064032;28;20028;-56
2023/02/08 06:53:10;;;;;;;9.75;2.47;;;18.10;51.30;;;;;;5054089;28;20044;-57
2023/02/08 06:55:38;;;;;;;3.92;3.00;;;18.10;51.20;;;;;;5063744;28;20062;-55
2023/02/08 06:58:06;;;;;;;5.80;3.38;;;18.10;51.10;;;;;;5064027;28;20123;-57
2023/02/08 07:00:34;;;;;;;3.70;2.53;;;18.10;51.00;;;;;;5063897;28;20044;-55
2023/02/08 07:03:02;;;;;;;5.78;2.25;;;18.10;50.90;;;;;;5064188;28;20036;-56
2023/02/08 07:05:30;;;;;;;2.17;2.08;;;18.10;51.30;;;;;;5064146;28;20084;-56
2023/02/08 07:07:57;;;;;;;4.28;2.38;;;18.10;50.60;;;;;;5063955;28;20528;-56
2023/02/08 07:10:29;;;;;;;3.95;2.10;;;18.10;50.60;;;;;;5062599;28;20074;-53
2023/02/08 07:12:56;;;;;;;3.88;2.45;;;18.10;50.50;;;;;;5063275;28;20070;-56
2023/02/08 07:15:23;;;;;;;2.28;2.08;;;18.10;50.50;;;;;;5058305;28;20601;-56
2023/02/08 07:17:51;;;;;;;2.45;2.20;;;18.10;50.40;;;;;;5059176;28;20068;-55
2023/02/08 07:20:18;;;;;;;8.88;2.42;;;18.10;50.30;;;;;;5064762;28;20051;-52
2023/02/08 07:22:45;;;;;;;5.07;3.22;;;18.00;50.60;;;;;;5062295;28;20402;-50
2023/02/08 07:25:13;;;;;;;9.00;2.53;;;18.00;50.60;;;;;;5064155;28;20067;-56
2023/02/08 07:27:41;;;;;;;10.68;2.70;;;18.00;50.60;;;;;;5063267;28;20044;-53
2023/02/08 07:30:12;;;;;;;10.68;3.67;;;18.10;50.70;;;;;;5060748;28;20508;-53
2023/02/08 07:32:39;;;;;;;12.98;3.92;;;18.10;51.40;;;;;;5059318;28;20663;-54
2023/02/08 07:35:06;;;;;;;26.42;5.88;;;18.10;52.10;;;;;;5066384;28;20032;-48
2023/02/08 07:37:38;;;;;;;20.15;5.95;;;18.10;53.00;;;;;;5067357;28;20464;-57
2023/02/08 07:40:05;;;;;;;14.60;5.20;;;18.10;53.70;;;;;;5065967;28;20048;-53
2023/02/08 07:42:34;;;;;;;25.98;6.53;;;18.10;53.90;;;;;;5066284;28;20127;-56
2023/02/08 07:45:13;;;;;;;11.07;4.85;;;18.10;53.80;;;;;;5066494;28;20045;-55
2023/02/08 07:47:40;;;;;;;11.40;4.50;;;18.10;54.40;;;;;;5074604;28;20044;-54
2023/02/08 07:50:08;;;;;;;13.85;4.65;;;18.10;54.30;;;;;;5087994;28;20032;-54
2023/02/08 07:52:38;;;;;;;19.73;5.10;;;18.10;54.00;;;;;;5062203;28;20538;-53
2023/02/08 07:55:08;;;;;;;15.30;4.53;;;18.10;53.70;;;;;;5064881;28;20052;-49
2023/02/08 07:57:38;;;;;;;19.88;7.45;;;18.10;53.80;;;;;;5070240;28;20036;-51
2023/02/08 08:00:06;;;;;;;13.27;6.18;;;18.10;55.80;;;;;;5055007;28;20616;-52
2023/02/08 08:02:40;;;;;;;21.73;4.82;;;18.20;57.40;;;;;;5046546;28;20160;-50
2023/02/08 08:05:08;;;;;;;12.25;4.10;;;18.20;58.50;;;;;;5046862;28;20871;-49
2023/02/08 08:07:35;;;;;;;12.15;4.68;;;18.20;59.10;;;;;;5046046;28;20048;-52
2023/02/08 08:10:08;;;;;;;15.27;5.60;;;18.20;59.50;;;;;;5045734;28;20830;-53
2023/02/08 08:12:35;;;;;;;10.27;4.10;;;18.30;59.70;;;;;;5045662;28;20045;-53
2023/02/08 08:15:04;;;;;;;11.25;5.53;;;18.30;59.70;;;;;;5045868;28;20124;-51
2023/02/08 08:17:31;;;;;;;6.88;4.05;;;18.30;59.60;;;;;;5046176;28;20048;-54
2023/02/08 08:19:59;;;;;;;10.48;3.75;;;18.30;59.30;;;;;;5045346;28;20072;-53
2023/02/08 08:22:27;;;;;;;7.43;4.15;;;18.30;59.20;;;;;;5063996;28;20072;-53
2023/02/08 08:24:57;;;;;;;6.07;3.15;;;18.30;58.90;;;;;;5067263;28;20049;-49
2023/02/08 08:27:24;;;;;;;4.97;3.50;;;18.30;58.60;;;;;;5067299;28;20462;-50
2023/02/08 08:29:53;;;;;;;6.10;4.05;;;18.30;58.30;;;;;;5067143;28;20048;-53
2023/02/08 08:32:20;;;;;;;11.20;3.50;;;18.30;58.10;;;;;;5067285;28;20051;-52
2023/02/08 08:34:49;;;;;;;4.32;3.60;;;18.30;57.70;;;;;;5067454;28;20115;-56
2023/02/08 08:37:20;;;;;;;7.18;3.53;;;18.30;57.50;;;;;;5066083;28;20056;-51
2023/02/08 08:39:47;;;;;;;3.83;3.10;;;18.20;57.10;;;;;;5067167;28;20132;-50
2023/02/08 08:42:14;;;;;;;6.05;3.60;;;18.20;56.90;;;;;;5066673;28;20056;-50
2023/02/08 08:44:43;;;;;;;4.60;2.90;;;18.20;56.70;;;;;;5066932;28;20576;-55
2023/02/08 08:47:11;;;;;;;5.18;2.85;;;18.20;56.40;;;;;;5066942;28;20421;-52
2023/02/08 08:49:38;;;;;;;7.03;2.75;;;18.20;56.10;;;;;;5066983;28;20132;-52
2023/02/08 08:52:06;;;;;;;5.32;2.55;;;18.20;55.90;;;;;;5066277;28;20075;-50
2023/02/08 08:54:36;;;;;;;3.72;2.88;;;18.20;55.60;;;;;;5066862;28;20071;-52
2023/02/08 08:57:04;;;;;;;2.88;2.47;;;18.20;55.50;;;;;;5066514;28;20617;-55
2023/02/08 08:59:31;;;;;;;9.02;3.70;;;18.20;55.20;;;;;;5066813;28;20072;-50
2023/02/08 09:01:59;;;;;;;5.03;2.42;;;18.20;55.00;;;;;;5066390;28;20048;-50
2023/02/08 09:04:28;;;;;;;4.43;3.38;;;18.20;54.70;;;;;;5066492;28;20131;-53
2023/02/08 09:06:55;;;;;;;3.35;2.83;;;18.20;54.60;;;;;;5066347;28;20040;-52
2023/02/08 09:09:24;;;;;;;6.88;3.25;;;18.10;54.40;;;;;;5049821;28;20057;-53
2023/02/08 09:11:54;;;;;;;2.60;2.10;;;18.10;54.20;;;;;;5046364;28;20041;-50
2023/02/08 09:14:22;;;;;;;3.85;2.35;;;18.10;54.00;;;;;;5046346;28;20051;-48
2023/02/08 09:16:51;;;;;;;4.60;3.28;;;18.10;53.80;;;;;;5046468;28;20616;-52
2023/02/08 09:19:19;;;;;;;8.13;3.60;;;18.20;53.70;;;;;;5045981;28;20124;-52
2023/02/08 09:21:46;;;;;;;3.30;2.10;;;18.10;53.40;;;;;;5058034;28;20040;-50
2023/02/08 09:24:13;;;;;;;2.45;2.08;;;18.10;53.20;;;;;;5066250;28;20037;-54
2023/02/08 09:26:40;;;;;;;3.13;2.05;;;18.10;53.00;;;;;;5066038;28;20044;-53
2023/02/08 09:29:09;;;;;;;4.07;2.78;;;18.10;52.80;;;;;;5065757;28;20041;-50
2023/02/08 09:31:38;;;;;;;3.63;3.15;;;18.10;52.70;;;;;;5065816;28;20076;-52
2023/02/08 09:34:06;;;;;;;2.53;2.33;;;18.10;52.40;;;;;;5065056;28;20504;-49
2023/02/08 09:36:35;;;;;;;4.10;2.97;;;18.10;52.20;;;;;;5066020;28;20131;-50
2023/02/08 09:39:07;;;;;;;5.28;3.20;;;18.10;52.10;;;;;;5069003;28;20504;-52
2023/02/08 09:42:21;;;;;;;3.80;2.63;;;18.10;51.90;;;;;;5083160;28;20052;-53
2023/02/08 09:45:14;;;;;;;3.78;3.08;;;18.10;51.60;;;;;;5023046;28;20572;-47
2023/02/08 09:47:49;;;;;;;4.30;2.58;;;18.10;51.50;;;;;;5023429;28;20103;-53
2023/02/08 09:50:26;;;;;;;2.75;2.30;;;18.10;51.30;;;;;;5006816;28;20088;-54
2023/02/08 09:53:00;;;;;;;3.65;3.25;;;18.10;51.20;;;;;;5003365;28;20058;-53
2023/02/08 09:55:35;;;;;;;3.35;2.30;;;18.10;51.00;;;;;;5003481;28;20104;-53
2023/02/08 09:58:10;;;;;;;2.47;2.28;;;18.10;50.80;;;;;;5011575;28;20053;-54
2023/02/08 10:00:43;;;;;;;4.72;2.35;;;18.10;50.60;;;;;;5024942;28;20136;-52
2023/02/08 10:03:29;;;;;;;5.22;2.15;;;18.10;50.40;;;;;;5023112;28;20052;-54
2023/02/08 10:05:56;;;;;;;3.08;2.70;;;18.10;50.20;;;;;;5023012;28;20623;-50
2023/02/08 10:08:23;;;;;;;3.58;2.72;;;18.10;50.10;;;;;;5022516;28;20045;-52
2023/02/08 10:10:55;;;;;;;3.25;2.22;;;18.00;49.90;;;;;;5022312;28;20595;-51
2023/02/08 10:13:41;;;;;;;4.63;2.40;;;18.10;49.80;;;;;;5022449;28;20287;-54
2023/02/08 10:16:18;;;;;;;3.08;2.50;;;18.10;49.60;;;;;;5005896;28;20124;-52
2023/02/08 10:18:54;;;;;;;1.95;1.40;;;18.10;49.40;;;;;;5022137;28;20609;-54
2023/02/08 10:21:44;;;;;;;3.55;2.95;;;18.10;49.40;;;;;;5061592;28;20134;-54
2023/02/08 10:24:25;;;;;;;3.05;2.75;;;18.10;49.10;;;;;;5064933;28;20473;-53
2023/02/08 10:27:03;;;;;;;3.85;2.67;;;18.10;49.00;;;;;;5064656;28;20068;-52
2023/02/08 10:29:58;;;;;;;4.67;2.20;;;18.10;48.90;;;;;;5064554;28;20044;-53
2023/02/08 10:32:39;;;;;;;2.33;1.92;;;18.10;48.70;;;;;;5064169;28;20041;-52
2023/02/08 10:35:11;;;;;;;5.72;3.30;;;18.10;48.70;;;;;;5063103;28;20052;-53
2023/02/08 10:37:41;;;;;;;4.50;3.17;;;18.10;48.50;;;;;;5063727;28;20497;-52
2023/02/08 10:40:23;;;;;;;5.13;3.03;;;18.10;48.40;;;;;;5064219;28;20055;-51
2023/02/08 10:42:55;;;;;;;2.58;2.38;;;18.20;48.20;;;;;;5064554;28;20584;-51
2023/02/08 10:45:27;;;;;;;2.70;1.98;;;18.10;48.00;;;;;;5064779;28;20076;-53
2023/02/08 10:48:04;;;;;;;4.40;2.72;;;18.20;47.90;;;;;;5044460;28;20410;-50
2023/02/08 10:50:35;;;;;;;4.88;2.08;;;18.20;47.50;;;;;;5046487;28;20045;-51
2023/02/08 10:53:05;;;;;;;3.75;2.40;;;18.20;47.20;;;;;;5064576;28;20052;-52
2023/02/08 10:55:36;;;;;;;4.65;3.13;;;18.30;46.90;;;;;;5064719;28;20044;-53
2023/02/08 10:58:06;;;;;;;3.28;2.95;;;18.30;46.70;;;;;;5064562;28;20132;-51
2023/02/08 11:00:36;;;;;;;4.38;2.70;;;18.40;46.50;;;;;;5064383;28;20072;-53
2023/02/08 11:03:16;;;;;;;5.82;3.60;;;18.40;46.30;;;;;;5064452;28;20048;-53
2023/02/08 11:05:44;;;;;;;3.28;3.03;;;18.50;46.00;;;;;;5064473;28;20044;-51
2023/02/08 11:08:16;;;;;;;3.33;2.28;;;18.50;45.90;;;;;;5064448;28;20041;-53
2023/02/08 11:10:48;;;;;;;6.97;2.70;;;18.50;45.70;;;;;;5067721;28;20784;-49
2023/02/08 11:13:20;;;;;;;3.63;3.42;;;18.60;45.50;;;;;;5068384;28;20527;-52
2023/02/08 11:15:50;;;;;;;3.17;2.38;;;18.70;45.40;;;;;;5066635;28;20195;-50
2023/02/08 11:18:24;;;;;;;2.90;2.70;;;18.70;45.20;;;;;;5068179;28;20424;-49
2023/02/08 11:20:55;;;;;;;2.50;2.03;;;18.70;45.00;;;;;;5068200;28;20149;-49
2023/02/08 11:23:26;;;;;;;3.22;2.92;;;18.70;44.90;;;;;;5068206;28;20045;-49
2023/02/08 11:26:16;;;;;;;2.63;2.00;;;18.80;44.80;;;;;;5068299;28;20032;-51
2023/02/08 11:28:44;;;;;;;3.83;2.30;;;18.80;44.70;;;;;;5068197;28;20052;-52
2023/02/08 11:31:19;;;;;;;3.08;2.38;;;18.80;44.50;;;;;;5068143;28;20580;-48
2023/02/08 11:34:02;;;;;;;2.72;2.53;;;18.90;44.40;;;;;;5068393;28;20041;-50
2023/02/08 11:36:33;;;;;;;3.17;2.88;;;19.00;44.30;;;;;;5049934;28;20556;-48
2023/02/08 11:39:03;;;;;;;2.80;2.35;;;19.00;44.30;;;;;;5048519;28;20083;-51
2023/02/08 11:41:32;;;;;;;3.97;2.67;;;19.00;44.10;;;;;;5050796;28;20037;-52
2023/02/08 11:44:05;;;;;;;2.05;1.90;;;19.10;44.00;;;;;;5068261;28;20043;-47
2023/02/08 11:46:38;;;;;;;2.75;1.60;;;19.10;43.90;;;;;;5073032;28;20048;-49
2023/02/08 11:49:06;;;;;;;2.65;2.00;;;19.20;43.80;;;;;;5081173;28;20037;-53
2023/02/08 11:51:36;;;;;;;2.00;1.90;;;19.20;43.70;;;;;;5067563;28;20044;-50
2023/02/08 11:54:06;;;;;;;1.77;1.48;;;19.30;43.60;;;;;;5069794;28;20122;-51
2023/02/08 11:56:35;;;;;;;4.18;2.38;;;19.30;43.50;;;;;;5067587;28;20574;-51
2023/02/08 11:59:05;;;;;;;2.80;2.53;;;19.30;43.30;;;;;;5067478;28;20072;-51
2023/02/08 12:01:35;;;;;;;4.60;2.10;;;19.40;43.30;;;;;;5067270;28;20139;-50
2023/02/08 12:04:07;;;;;;;3.28;2.28;;;19.40;43.10;;;;;;5067575;28;20071;-51
2023/02/08 12:06:54;;;;;;;2.10;1.98;;;19.40;43.00;;;;;;5067682;28;20106;-54
2023/02/08 12:09:40;;;;;;;3.75;2.53;;;19.50;42.80;;;;;;5061159;28;20072;-49
2023/02/08 12:12:16;;;;;;;2.38;2.17;;;19.60;42.80;;;;;;5067436;28;20117;-52
2023/02/08 12:15:02;;;;;;;2.25;2.03;;;19.60;42.70;;;;;;5066849;28;20052;-50
2023/02/08 12:17:51;;;;;;;3.88;2.05;;;19.60;42.50;;;;;;5066873;28;20126;-50
2023/02/08 12:20:42;;;;;;;2.13;1.58;;;19.70;42.50;;;;;;5066618;28;20663;-54
2023/02/08 12:23:30;;;;;;;3.95;2.15;;;19.80;42.30;;;;;;5046935;28;20052;-54
2023/02/08 12:26:10;;;;;;;2.85;1.65;;;19.80;42.30;;;;;;5047580;28;20106;-54
2023/02/08 12:28:50;;;;;;;2.90;2.60;;;19.80;42.30;;;;;;5048911;28;20049;-50
2023/02/08 12:31:27;;;;;;;2.13;2.03;;;19.80;42.10;;;;;;5066922;28;20573;-55
2023/02/08 12:34:03;;;;;;;3.67;2.72;;;19.90;42.10;;;;;;5067141;28;20828;-52
2023/02/08 12:43:13;;;;;;;3.83;2.65;;;19.90;41.70;;;;;;5003875;28;20085;-50
2023/02/08 12:46:13;;;;;;;2.35;2.13;;;20.00;41.70;;;;;;4987996;28;20542;-54
2023/02/08 12:49:00;;;;;;;2.33;2.03;;;20.00;41.60;;;;;;4987628;28;20488;-51
2023/02/08 12:51:38;;;;;;;3.70;2.17;;;20.10;41.50;;;;;;5004181;28;20549;-51
2023/02/08 12:54:11;;;;;;;1.63;1.52;;;20.10;41.30;;;;;;5004067;28;20116;-52
2023/02/08 12:56:44;;;;;;;2.42;2.22;;;20.10;41.20;;;;;;5003927;28;20186;-52
2023/02/08 12:59:23;;;;;;;1.52;1.38;;;20.20;41.20;;;;;;5004351;28;20189;-52
2023/02/08 13:01:58;;;;;;;4.38;1.73;;;20.30;41.10;;;;;;5003894;28;20057;-52
2023/02/08 13:04:53;;;;;;;2.35;1.75;;;20.20;41.00;;;;;;5003611;28;20049;-53
2023/02/08 13:07:25;;;;;;;2.75;2.40;;;20.30;40.90;;;;;;5003941;28;20057;-54
2023/02/08 13:10:01;;;;;;;3.92;1.63;;;20.30;40.80;;;;;;5003957;28;20046;-52
2023/02/08 13:12:32;;;;;;;1.17;1.08;;;20.40;40.70;;;;;;4997947;28;20050;-50
2023/02/08 13:15:08;;;;;;;1.98;1.80;;;20.40;40.60;;;;;;5041288;28;20049;-54
2023/02/08 13:17:44;;;;;;;1.70;1.30;;;20.50;40.50;;;;;;5045843;28;20797;-51
2023/02/08 13:20:31;;;;;;;1.35;1.10;;;20.50;40.40;;;;;;5046083;28;20557;-52